Time;durP1;ratioP1;P1;durP2;ratioP2;P2;SDS_P1;SDS_P2;PMS_P1;PMS_P2;Temp;Humidity;BMP_temperature;BMP_pressure;BME280_temperature;BME280_humidity;BME280_pressure;Samples;Min_cycle;Max_cycle;Signal;HPM_P1;HPM_P2
2023/12/02 00:01:11;;;;;;;24.63;11.60;;;;;;;-0.25;86.20;100989.84;6246027;22;20075;-83
2023/12/02 00:03:36;;;;;;;24.52;12.00;;;;;;;-0.26;86.11;100993.22;6244439;23;20461;-82
2023/12/02 00:06:03;;;;;;;21.85;11.75;;;;;;;-0.23;86.15;100995.09;6244572;23;20008;-82
2023/12/02 00:08:28;;;;;;;19.45;10.25;;;;;;;-0.19;86.47;100986.66;6244820;22;20012;-82
2023/12/02 00:10:54;;;;;;;22.15;11.43;;;;;;;-0.36;86.69;100955.47;6244223;23;20059;-82
2023/12/02 00:13:19;;;;;;;21.27;10.63;;;;;;;-0.24;86.38;100975.13;6244456;23;20027;-82
2023/12/02 00:15:44;;;;;;;21.55;10.77;;;;;;;-0.17;86.46;100992.81;6245670;22;20012;-82
2023/12/02 00:18:10;;;;;;;19.23;11.18;;;;;;;-0.33;85.88;100963.44;6245738;22;20004;-82
2023/12/02 00:20:35;;;;;;;22.05;10.98;;;;;;;-0.31;86.23;100969.59;6219303;23;20004;-82
2023/12/02 00:23:00;;;;;;;21.98;11.20;;;;;;;-0.18;85.97;100999.72;6244273;23;20327;-82
2023/12/02 00:25:26;;;;;;;21.20;10.60;;;;;;;-0.28;85.91;100964.56;6246140;22;20050;-82
2023/12/02 00:27:51;;;;;;;24.10;11.25;;;;;;;-0.12;85.20;100991.41;6246583;23;20375;-82
2023/12/02 00:30:17;;;;;;;21.55;11.05;;;;;;;-0.06;85.95;100992.63;6246085;22;20004;-82
2023/12/02 00:32:42;;;;;;;22.55;11.45;;;;;;;-0.05;85.36;100988.31;6247084;22;20008;-82
2023/12/02 00:35:08;;;;;;;22.58;11.13;;;;;;;-0.04;84.89;100996.22;6246606;23;20054;-82
2023/12/02 00:37:33;;;;;;;19.67;10.60;;;;;;;-0.02;84.92;101004.09;6220871;23;20012;-82
2023/12/02 00:39:59;;;;;;;22.50;11.40;;;;;;;-0.22;85.08;100966.59;6248010;22;20012;-82
2023/12/02 00:42:25;;;;;;;21.13;11.15;;;;;;;0.01;85.39;100993.88;6247458;23;20008;-82
2023/12/02 00:44:50;;;;;;;21.30;10.80;;;;;;;-0.10;85.54;100979.38;6246621;23;20035;-82
2023/12/02 00:47:18;;;;;;;22.08;10.98;;;;;;;-0.02;84.35;100985.91;6246295;23;20013;-82
2023/12/02 00:49:44;;;;;;;20.80;11.07;;;;;;;-0.12;84.23;100981.03;6247912;22;20085;-82
2023/12/02 00:52:09;;;;;;;20.90;10.18;;;;;;;-0.09;84.57;100999.34;6246125;23;20008;-83
2023/12/02 00:54:36;;;;;;;19.13;10.27;;;;;;;-0.22;84.86;100996.88;6247720;22;20012;-82
2023/12/02 00:57:01;;;;;;;21.40;10.60;;;;;;;-0.18;85.02;100998.84;6246547;23;20008;-82
2023/12/02 00:59:29;;;;;;;19.35;10.55;;;;;;;-0.29;84.25;100978.38;6247816;22;20057;-82
2023/12/02 01:01:55;;;;;;;20.70;10.70;;;;;;;-0.07;84.70;100997.75;6247427;22;20071;-82
2023/12/02 01:04:20;;;;;;;19.05;10.20;;;;;;;0.01;84.10;101003.38;6245760;22;20090;-83
2023/12/02 01:06:45;;;;;;;19.48;10.30;;;;;;;0.07;84.39;100998.50;6247296;22;20023;-82
2023/12/02 01:09:11;;;;;;;23.58;11.18;;;;;;;-0.11;83.51;100965.50;6247668;22;20032;-83
2023/12/02 01:11:36;;;;;;;23.40;11.32;;;;;;;0.10;83.63;100998.69;6246429;23;20470;-82
2023/12/02 01:14:02;;;;;;;21.10;11.20;;;;;;;0.10;83.53;100993.50;6247484;22;20330;-82
2023/12/02 01:16:27;;;;;;;20.55;9.45;;;;;;;0.12;83.79;100982.34;6245758;23;20008;-83
2023/12/02 01:18:52;;;;;;;18.13;10.05;;;;;;;0.20;83.65;100973.28;6246087;23;20062;-83
2023/12/02 01:21:18;;;;;;;23.05;10.98;;;;;;;0.05;82.84;100950.78;6246080;23;20327;-83
2023/12/02 01:23:43;;;;;;;21.60;10.85;;;;;;;0.20;83.12;100964.59;6245768;23;20038;-83
2023/12/02 01:26:09;;;;;;;20.48;10.57;;;;;;;0.32;83.64;100988.63;6247472;22;20004;-82
2023/12/02 01:28:34;;;;;;;21.55;11.20;;;;;;;0.02;83.15;100948.91;6247487;22;20008;-82
2023/12/02 01:30:59;;;;;;;21.13;10.45;;;;;;;0.15;83.56;100958.25;6246604;23;20008;-82
2023/12/02 01:33:25;;;;;;;21.30;11.45;;;;;;;0.22;83.27;100984.66;6247303;22;20419;-82
2023/12/02 01:35:51;;;;;;;22.95;11.20;;;;;;;0.19;83.39;100991.38;6247437;22;20134;-82
2023/12/02 01:38:16;;;;;;;19.75;10.88;;;;;;;0.09;83.60;100990.00;6247683;22;20015;-82
2023/12/02 01:40:45;;;;;;;23.13;11.70;;;;;;;-0.08;84.20;100976.06;6245866;23;20044;-82
2023/12/02 01:43:23;;;;;;;20.35;11.07;;;;;;;0.01;84.57;100993.00;6247378;22;20016;-82
2023/12/02 01:45:49;;;;;;;22.27;10.80;;;;;;;0.09;84.73;101010.78;6257292;22;20023;-82
2023/12/02 01:48:14;;;;;;;21.05;10.95;;;;;;;0.13;84.27;101014.41;6277899;22;20004;-82
2023/12/02 01:50:40;;;;;;;20.95;11.15;;;;;;;0.18;84.11;101018.19;6250527;22;20373;-82
2023/12/02 01:53:05;;;;;;;22.77;11.48;;;;;;;0.09;83.96;101004.69;6276940;22;20003;-83
2023/12/02 01:55:30;;;;;;;21.48;11.38;;;;;;;0.13;84.13;101017.00;6225235;22;20473;-82
2023/12/02 01:57:56;;;;;;;23.50;11.90;;;;;;;-0.04;84.23;100992.72;6277730;22;20050;-82
2023/12/02 02:00:23;;;;;;;21.45;11.43;;;;;;;-0.11;83.68;100983.69;6250273;22;20008;-82
2023/12/02 02:02:48;;;;;;;23.75;10.57;;;;;;;0.00;83.79;101010.28;6251067;22;20016;-82
2023/12/02 02:05:14;;;;;;;22.88;11.00;;;;;;;-0.05;84.20;101002.19;6277408;22;20069;-82
2023/12/02 02:07:39;;;;;;;21.98;11.20;;;;;;;0.01;84.10;101018.97;6250232;22;20007;-82
2023/12/02 02:10:05;;;;;;;23.00;11.38;;;;;;;-0.05;84.71;100999.59;6250613;22;20057;-82
2023/12/02 02:12:31;;;;;;;22.70;11.45;;;;;;;-0.14;84.64;100995.59;6277622;22;20537;-82
2023/12/02 02:14:56;;;;;;;20.77;10.68;;;;;;;0.11;85.28;101026.44;6250422;22;20012;-82
2023/12/02 02:17:22;;;;;;;22.20;11.82;;;;;;;-0.10;84.37;100992.38;6200438;22;20012;-82
2023/12/02 02:19:47;;;;;;;25.13;11.55;;;;;;;-0.10;84.28;100992.38;6250543;22;20003;-82
2023/12/02 02:22:13;;;;;;;22.85;11.57;;;;;;;-0.03;84.10;101021.38;6276944;22;20008;-82
2023/12/02 02:24:38;;;;;;;21.00;11.00;;;;;;;-0.11;84.82;101014.84;6277764;22;20012;-82
2023/12/02 02:27:05;;;;;;;23.10;11.40;;;;;;;-0.18;84.47;101020.50;6250643;22;20086;-82
2023/12/02 02:29:31;;;;;;;22.58;11.43;;;;;;;-0.32;84.23;100998.06;6277554;22;20475;-82
2023/12/02 02:31:56;;;;;;;23.20;11.40;;;;;;;-0.45;84.34;100986.09;6250437;22;20082;-82
2023/12/02 02:34:22;;;;;;;22.10;11.70;;;;;;;-0.48;84.53;100985.03;6250040;22;20030;-82
2023/12/02 02:36:47;;;;;;;23.30;10.75;;;;;;;-0.33;84.76;101017.94;6226123;22;20086;-82
2023/12/02 02:39:13;;;;;;;21.25;11.55;;;;;;;-0.36;84.46;101007.38;6250386;22;20004;-81
2023/12/02 02:41:38;;;;;;;22.67;11.73;;;;;;;-0.46;84.63;100991.22;6277672;22;20456;-82
2023/12/02 02:44:06;;;;;;;23.70;11.02;;;;;;;-0.40;84.24;101009.72;6251085;22;20444;-82
2023/12/02 02:46:32;;;;;;;21.38;11.18;;;;;;;-0.31;85.13;101029.31;6225235;22;20016;-82
2023/12/02 02:48:57;;;;;;;25.75;10.52;;;;;;;-0.28;84.68;101026.00;6250541;22;20079;-81
2023/12/02 02:51:22;;;;;;;20.73;10.98;;;;;;;-0.28;84.88;101023.41;6277588;22;20034;-82
2023/12/02 02:53:48;;;;;;;20.40;10.55;;;;;;;-0.55;84.88;100976.91;6275968;22;20011;-82
2023/12/02 02:56:13;;;;;;;20.17;10.57;;;;;;;-0.18;85.01;101025.69;6277215;22;20012;-82
2023/12/02 02:58:39;;;;;;;21.65;10.43;;;;;;;-0.09;85.23;101039.19;6249831;22;20038;-82
2023/12/02 03:01:04;;;;;;;22.27;11.15;;;;;;;-0.03;84.90;101041.28;6277217;22;20008;-82
2023/12/02 03:03:30;;;;;;;22.70;10.98;;;;;;;-0.03;84.47;101042.16;6277168;22;20449;-82
2023/12/02 03:05:55;;;;;;;22.20;10.73;;;;;;;0.06;84.53;101046.09;6225098;22;20011;-82
2023/12/02 03:08:21;;;;;;;20.92;10.40;;;;;;;0.06;84.02;101048.69;6276759;22;20015;-82
2023/12/02 03:10:50;;;;;;;20.45;10.85;;;;;;;-0.17;83.78;100991.16;6249939;22;20015;-82
2023/12/02 03:13:15;;;;;;;20.70;10.70;;;;;;;0.19;84.53;101045.94;6250281;22;20014;-82
2023/12/02 03:15:41;;;;;;;21.73;11.02;;;;;;;-0.13;84.33;100995.72;6277398;22;20012;-82
2023/12/02 03:18:06;;;;;;;19.98;10.38;;;;;;;0.16;84.10;101050.97;6277075;22;20003;-82
2023/12/02 03:20:31;;;;;;;21.23;10.50;;;;;;;0.17;84.58;101040.69;6250308;22;20011;-82
2023/12/02 03:22:57;;;;;;;21.02;10.75;;;;;;;0.06;84.29;101028.78;6224110;22;20008;-82
2023/12/02 03:25:22;;;;;;;21.98;11.20;;;;;;;0.14;84.48;101053.50;6277683;22;20011;-82
2023/12/02 03:27:47;;;;;;;20.55;10.88;;;;;;;0.16;84.53;101049.25;6276883;22;20004;-82
2023/12/02 03:30:13;;;;;;;22.92;12.23;;;;;;;0.10;84.35;101038.53;6249550;22;20439;-81
2023/12/02 03:32:39;;;;;;;20.38;10.98;;;;;;;-0.09;84.48;101009.75;6249703;22;20034;-82
2023/12/02 03:35:08;;;;;;;20.58;10.68;;;;;;;0.13;84.74;101048.19;6249719;22;20035;-82
2023/12/02 03:37:34;;;;;;;21.60;11.10;;;;;;;0.04;84.14;101032.09;6275828;22;20008;-82
2023/12/02 03:40:00;;;;;;;19.90;10.98;;;;;;;0.14;84.43;101044.81;6276479;22;20008;-82
2023/12/02 03:42:25;;;;;;;24.02;11.70;;;;;;;0.15;84.13;101057.88;6249766;22;20430;-82
2023/12/02 03:44:51;;;;;;;21.10;11.13;;;;;;;0.11;84.36;101032.53;6250016;22;20022;-82
2023/12/02 03:47:19;;;;;;;23.15;11.73;;;;;;;0.19;84.56;101051.16;6277210;22;20037;-82
2023/12/02 03:49:45;;;;;;;21.92;11.02;;;;;;;0.22;84.29;101051.34;6276810;22;20018;-82
2023/12/02 03:52:10;;;;;;;22.90;11.35;;;;;;;-0.01;83.23;101040.53;6250079;22;20039;-82
2023/12/02 03:54:35;;;;;;;19.40;10.25;;;;;;;-0.07;83.85;101008.13;6249553;22;20489;-82
2023/12/02 03:57:01;;;;;;;20.30;10.88;;;;;;;-0.03;83.61;101017.88;6224334;22;20011;-82
2023/12/02 03:59:26;;;;;;;18.15;10.13;;;;;;;0.16;83.27;101079.56;6249501;22;20007;-82
2023/12/02 04:01:52;;;;;;;21.35;10.77;;;;;;;0.12;84.12;101054.22;6275459;22;20419;-82
2023/12/02 04:04:18;;;;;;;20.20;10.63;;;;;;;0.05;84.11;101055.59;6249311;22;20034;-82
2023/12/02 04:06:44;;;;;;;19.35;10.32;;;;;;;0.14;83.03;101063.88;6276473;22;20004;-82
2023/12/02 04:09:09;;;;;;;20.40;10.30;;;;;;;0.09;84.00;101070.53;6249320;22;20012;-82
2023/12/02 04:11:35;;;;;;;19.92;9.77;;;;;;;0.16;84.19;101063.97;6249322;22;20003;-82
2023/12/02 04:14:00;;;;;;;20.80;10.82;;;;;;;0.06;83.79;101062.56;6276447;22;20003;-82
2023/12/02 04:16:26;;;;;;;18.27;10.18;;;;;;;-0.09;83.99;101046.09;6276703;22;20004;-82
2023/12/02 04:18:51;;;;;;;19.80;10.65;;;;;;;0.02;84.22;101063.19;6249529;22;20046;-82
2023/12/02 04:21:17;;;;;;;20.42;10.82;;;;;;;0.12;84.01;101083.69;6249426;22;20050;-82
2023/12/02 04:23:43;;;;;;;21.40;11.15;;;;;;;0.14;84.22;101087.28;6249153;22;20011;-82
2023/12/02 04:26:08;;;;;;;19.58;9.63;;;;;;;0.11;83.78;101074.09;6276263;22;20011;-82
2023/12/02 04:28:34;;;;;;;20.17;10.30;;;;;;;0.31;84.03;101087.31;6276588;22;20461;-81
2023/12/02 04:30:59;;;;;;;19.63;10.50;;;;;;;0.36;83.38;101088.47;6276540;22;20015;-82
2023/12/02 04:33:25;;;;;;;18.92;9.65;;;;;;;0.37;83.70;101074.66;6249823;22;20039;-81
2023/12/02 04:35:50;;;;;;;19.73;10.05;;;;;;;0.46;83.10;101095.94;6276209;22;20004;-82
2023/12/02 04:38:16;;;;;;;18.38;10.32;;;;;;;0.55;82.34;101100.75;6276559;22;20438;-82
2023/12/02 04:40:41;;;;;;;19.15;10.57;;;;;;;0.38;82.39;101079.94;6276721;22;20016;-82
2023/12/02 04:43:07;;;;;;;20.10;10.27;;;;;;;0.34;82.29;101085.75;6276771;22;20089;-82
2023/12/02 04:45:32;;;;;;;19.73;10.90;;;;;;;0.22;82.72;101072.13;6276701;22;20450;-82
2023/12/02 04:47:59;;;;;;;17.83;9.60;;;;;;;0.27;81.95;101090.56;6276885;22;20039;-82
2023/12/02 04:50:24;;;;;;;20.17;10.82;;;;;;;0.33;82.62;101090.88;6276757;22;20027;-82
2023/12/02 04:52:50;;;;;;;19.90;10.15;;;;;;;0.42;82.38;101091.41;6276576;22;20012;-82
2023/12/02 04:55:16;;;;;;;22.65;12.02;;;;;;;0.35;82.49;101077.19;6249962;22;20018;-82
2023/12/02 04:57:42;;;;;;;27.23;14.55;;;;;;;0.31;82.33;101070.03;6224540;22;20134;-82
2023/12/02 05:00:14;;;;;;;20.00;10.23;;;;;;;0.40;82.13;101087.84;6276051;22;20047;-82
2023/12/02 05:02:43;;;;;;;18.83;10.05;;;;;;;0.26;82.48;101071.47;6275222;22;20390;-82
2023/12/02 05:05:10;;;;;;;19.45;10.27;;;;;;;0.32;82.37;101094.31;6276492;22;20054;-82
2023/12/02 05:07:35;;;;;;;19.67;10.52;;;;;;;0.36;83.19;101098.88;6276402;22;20011;-82
2023/12/02 05:10:01;;;;;;;20.40;10.00;;;;;;;0.40;83.19;101106.91;6250202;22;20065;-82
2023/12/02 05:12:28;;;;;;;19.80;10.55;;;;;;;0.43;82.47;101119.22;6248902;22;20014;-82
2023/12/02 05:14:54;;;;;;;19.67;9.98;;;;;;;0.46;82.39;101104.66;6249496;22;20039;-82
2023/12/02 05:17:19;;;;;;;20.35;10.27;;;;;;;0.46;82.26;101104.66;6224040;22;20414;-82
2023/12/02 05:19:45;;;;;;;20.27;10.15;;;;;;;0.48;81.80;101116.03;6224633;22;20032;-82
2023/12/02 05:22:10;;;;;;;22.45;11.50;;;;;;;0.21;82.07;101085.91;6251298;22;20018;-83
2023/12/02 05:24:38;;;;;;;19.73;10.10;;;;;;;0.27;82.25;101121.75;6250911;22;20015;-81
2023/12/02 05:27:03;;;;;;;22.63;11.20;;;;;;;0.22;82.41;101130.19;6278107;22;20003;-82
2023/12/02 05:29:29;;;;;;;18.67;9.88;;;;;;;0.17;83.20;101118.63;6251213;22;20011;-82
2023/12/02 05:31:54;;;;;;;19.30;10.32;;;;;;;0.13;83.19;101119.25;6225952;22;20015;-82
2023/12/02 05:34:20;;;;;;;22.15;12.15;;;;;;;0.14;83.15;101126.25;6278574;22;20438;-82
2023/12/02 05:36:46;;;;;;;21.23;11.48;;;;;;;0.04;83.69;101121.31;6251613;22;20007;-82
2023/12/02 05:39:13;;;;;;;21.85;11.40;;;;;;;-0.07;84.14;101109.44;6278012;22;19999;-82
2023/12/02 05:41:42;;;;;;;21.58;11.25;;;;;;;-0.03;83.99;101108.81;6225839;22;20012;-82
2023/12/02 05:44:08;;;;;;;19.75;11.00;;;;;;;-0.44;83.77;101063.16;6250728;22;20011;-82
2023/12/02 05:46:34;;;;;;;25.20;12.10;;;;;;;-0.16;84.71;101127.09;6246070;23;20360;-81
2023/12/02 05:48:59;;;;;;;22.60;11.68;;;;;;;-0.17;85.99;101109.69;6247628;22;20016;-82
2023/12/02 05:51:26;;;;;;;21.23;11.00;;;;;;;-0.04;85.22;101110.50;6245654;23;20012;-82
2023/12/02 05:53:51;;;;;;;19.90;11.15;;;;;;;-0.04;84.55;101107.91;6245386;23;20004;-82
2023/12/02 05:56:21;;;;;;;20.27;10.60;;;;;;;0.02;84.46;101114.25;6220364;23;20008;-82
2023/12/02 05:58:46;;;;;;;20.30;10.40;;;;;;;0.10;84.62;101116.47;6247160;22;20069;-82
2023/12/02 06:01:12;;;;;;;19.77;10.25;;;;;;;0.17;84.54;101139.44;6246779;22;20366;-82
2023/12/02 06:03:37;;;;;;;22.60;11.25;;;;;;;0.17;84.53;101143.69;6247986;22;20008;-82
2023/12/02 06:06:09;;;;;;;22.10;11.05;;;;;;;0.10;84.77;101144.16;6245556;23;20450;-82
2023/12/02 06:08:34;;;;;;;20.80;10.93;;;;;;;0.09;84.25;101151.06;6246701;22;20039;-82
2023/12/02 06:11:01;;;;;;;20.15;10.48;;;;;;;0.09;84.56;101153.69;6247002;22;20008;-82
2023/12/02 06:13:27;;;;;;;18.48;10.35;;;;;;;-0.08;85.03;101115.44;6246969;22;20053;-82
2023/12/02 06:15:52;;;;;;;21.20;11.45;;;;;;;0.08;84.62;101148.38;6245619;23;20437;-82
2023/12/02 06:18:18;;;;;;;25.13;12.30;;;;;;;-0.08;84.47;101125.84;6245426;23;20430;-82
2023/12/02 06:20:43;;;;;;;25.58;12.38;;;;;;;-0.08;86.31;101128.44;6245933;23;20062;-82
2023/12/02 06:23:11;;;;;;;29.35;12.95;;;;;;;0.02;85.82;101143.72;6247104;22;20019;-82
2023/12/02 06:25:36;;;;;;;38.45;16.35;;;;;;;0.04;85.98;101147.28;6245630;22;20008;-82
2023/12/02 06:28:02;;;;;;;36.42;14.95;;;;;;;-0.01;85.68;101141.84;6245888;23;20014;-82
2023/12/02 06:30:27;;;;;;;22.75;11.30;;;;;;;0.05;85.09;101151.72;6246770;23;20014;-82
2023/12/02 06:32:52;;;;;;;23.40;10.27;;;;;;;0.00;84.91;101142.75;6245715;23;20012;-82
2023/12/02 06:35:18;;;;;;;22.58;11.68;;;;;;;-0.02;85.24;101145.25;6245006;23;20478;-82
2023/12/02 06:37:43;;;;;;;20.52;10.80;;;;;;;0.06;85.72;101170.78;6245003;23;20443;-82
2023/12/02 06:40:09;;;;;;;25.17;11.82;;;;;;;0.03;85.34;101162.81;6246899;22;20066;-82
2023/12/02 06:42:35;;;;;;;29.75;13.07;;;;;;;0.10;86.08;101165.84;6220515;23;20327;-82
2023/12/02 06:45:00;;;;;;;26.10;12.40;;;;;;;0.15;85.78;101168.72;6246967;22;20015;-82
2023/12/02 06:47:25;;;;;;;22.95;11.80;;;;;;;0.01;85.73;101131.56;6270595;22;20016;-82
2023/12/02 06:49:51;;;;;;;21.33;11.23;;;;;;;0.13;85.11;101149.53;6245142;23;20036;-82
2023/12/02 06:52:16;;;;;;;34.50;14.30;;;;;;;0.27;84.30;101176.31;6219812;23;20488;-82
2023/12/02 06:54:42;;;;;;;24.58;12.35;;;;;;;0.16;85.11;101170.50;6246429;22;20008;-82
2023/12/02 06:57:07;;;;;;;22.83;11.68;;;;;;;0.17;85.12;101182.66;6247428;22;20011;-82
2023/12/02 06:59:33;;;;;;;21.75;11.10;;;;;;;0.17;85.34;101188.78;6245409;23;20442;-82
2023/12/02 07:01:59;;;;;;;23.13;11.70;;;;;;;0.05;85.47;101180.28;6245155;23;20035;-82
2023/12/02 07:04:27;;;;;;;22.15;11.27;;;;;;;0.02;85.47;101182.69;6246720;22;20431;-83
2023/12/02 07:06:52;;;;;;;22.38;11.50;;;;;;;0.06;85.42;101195.06;6245288;23;20103;-83
2023/12/02 07:09:18;;;;;;;21.13;11.88;;;;;;;0.07;85.82;101204.63;6246398;22;20423;-83
2023/12/02 07:11:43;;;;;;;25.13;11.52;;;;;;;-0.04;85.31;101195.34;6246749;22;20008;-82
2023/12/02 07:14:09;;;;;;;22.20;11.10;;;;;;;0.09;85.60;101208.22;6245133;23;20091;-83
2023/12/02 07:16:36;;;;;;;22.60;11.80;;;;;;;0.06;86.00;101218.44;6246697;22;20051;-83
2023/12/02 07:19:02;;;;;;;22.98;11.30;;;;;;;-0.03;85.60;101223.09;6245218;23;20008;-83
2023/12/02 07:21:27;;;;;;;25.88;12.57;;;;;;;-0.17;86.11;101210.97;6245138;23;20326;-82
2023/12/02 07:23:52;;;;;;;27.75;13.18;;;;;;;-0.15;87.12;101224.97;6244697;23;20039;-82
2023/12/02 07:26:18;;;;;;;30.25;13.15;;;;;;;-0.27;87.87;101212.13;6219690;23;20050;-83
2023/12/02 07:28:43;;;;;;;33.97;13.50;;;;;;;-0.19;88.43;101218.69;6245557;22;20012;-83
2023/12/02 07:31:16;;;;;;;29.83;12.77;;;;;;;-0.28;87.98;101205.16;6244076;23;20073;-83
2023/12/02 07:33:44;;;;;;;26.42;12.98;;;;;;;-0.18;88.07;101223.06;6245017;23;20035;-83
2023/12/02 07:36:10;;;;;;;25.90;13.45;;;;;;;-0.32;88.49;101211.84;6245635;22;20325;-83
2023/12/02 07:38:36;;;;;;;25.60;12.40;;;;;;;-0.18;88.49;101235.16;6246026;23;20087;-82
2023/12/02 07:41:01;;;;;;;23.45;11.77;;;;;;;-0.06;88.42;101238.50;6244327;23;20375;-82
2023/12/02 07:43:27;;;;;;;22.70;11.13;;;;;;;-0.19;88.61;101200.50;6244047;23;20015;-82
2023/12/02 07:45:52;;;;;;;24.73;11.77;;;;;;;-0.06;87.93;101223.78;6243935;22;20435;-83
2023/12/02 07:48:18;;;;;;;25.48;12.00;;;;;;;-0.06;88.34;101229.00;6244027;23;20012;-82
2023/12/02 07:50:43;;;;;;;33.95;14.23;;;;;;;-0.09;87.91;101234.00;6244131;23;20075;-82
2023/12/02 07:53:09;;;;;;;24.38;12.25;;;;;;;-0.05;88.21;101240.28;6244341;23;20004;-82
2023/12/02 07:55:34;;;;;;;27.15;12.75;;;;;;;0.04;88.22;101253.81;6244297;23;20022;-82
2023/12/02 07:58:00;;;;;;;25.85;12.40;;;;;;;0.08;87.29;101255.78;6245795;22;20088;-82
2023/12/02 08:00:26;;;;;;;23.35;11.75;;;;;;;0.01;87.78;101230.25;6245096;23;20008;-82
2023/12/02 08:02:51;;;;;;;24.45;11.82;;;;;;;-0.06;87.60;101215.13;6244331;23;20115;-82
2023/12/02 08:05:17;;;;;;;24.25;12.27;;;;;;;0.10;86.72;101245.50;6244532;23;20012;-82
2023/12/02 08:07:43;;;;;;;25.73;12.40;;;;;;;0.15;86.82;101265.75;6243930;23;20142;-82
2023/12/02 08:10:09;;;;;;;26.70;12.35;;;;;;;-0.09;86.98;101233.09;6245145;23;20054;-82
2023/12/02 08:12:35;;;;;;;27.23;13.23;;;;;;;-0.08;87.19;101261.78;6245814;22;20011;-82
2023/12/02 08:15:00;;;;;;;26.83;12.68;;;;;;;-0.04;88.14;101266.38;6245902;22;20009;-82
2023/12/02 08:17:26;;;;;;;25.40;12.45;;;;;;;0.11;88.08;101278.47;6245588;22;20419;-83
2023/12/02 08:19:51;;;;;;;25.08;12.35;;;;;;;-0.05;87.79;101242.88;6218914;23;20008;-82
2023/12/02 08:22:24;;;;;;;24.90;12.88;;;;;;;0.21;87.37;101286.91;6245528;23;20012;-82
2023/12/02 08:24:49;;;;;;;;;;;;;;;0.37;87.43;101291.28;6246660;22;20023;-83
2023/12/02 08:27:14;;;;;;;25.02;11.48;;;;;;;0.38;87.05;101284.38;6219257;23;19911;-83
2023/12/02 08:29:40;;;;;;;26.95;11.90;;;;;;;0.40;87.53;101262.00;6244837;23;20323;-83
2023/12/02 08:32:06;;;;;;;26.35;12.65;;;;;;;0.44;87.31;101237.97;6244449;23;20373;-82
2023/12/02 08:34:31;;;;;;;23.50;12.18;;;;;;;0.68;86.30;101264.47;6244651;23;20019;-83
2023/12/02 08:36:56;;;;;;;27.25;12.82;;;;;;;0.89;85.57;101291.69;6245825;22;20347;-83
2023/12/02 08:39:22;;;;;;;25.90;13.02;;;;;;;0.89;85.53;101276.06;6244846;23;20058;-83
2023/12/02 08:41:47;;;;;;;25.73;12.57;;;;;;;0.87;85.47;101271.63;6245926;22;20088;-82
2023/12/02 08:44:15;;;;;;;25.35;13.23;;;;;;;0.77;85.95;101251.97;6244254;23;20087;-82
2023/12/02 08:46:40;;;;;;;25.30;12.77;;;;;;;1.11;84.37;101308.50;6266477;22;20087;-81
2023/12/02 08:49:06;;;;;;;26.20;12.55;;;;;;;0.93;84.40;101279.75;6249429;22;20075;-81
2023/12/02 08:51:31;;;;;;;26.23;12.70;;;;;;;0.96;84.13;101296.44;6249601;22;20055;-81
2023/12/02 08:54:03;;;;;;;25.58;13.00;;;;;;;0.80;84.69;101275.56;6276833;22;20039;-82
2023/12/02 08:56:28;;;;;;;23.02;11.95;;;;;;;1.07;84.64;101314.34;6226095;22;20086;-82
2023/12/02 08:58:54;;;;;;;27.70;13.07;;;;;;;0.90;84.58;101295.19;6251278;22;20191;-84
2023/12/02 09:01:20;;;;;;;26.77;13.32;;;;;;;0.92;84.53;101297.06;6278945;22;20034;-83
2023/12/02 09:03:46;;;;;;;24.20;12.88;;;;;;;1.05;84.40;101310.78;6278430;22;20010;-83
2023/12/02 09:06:11;;;;;;;26.05;12.45;;;;;;;0.91;84.63;101307.41;6278615;22;20003;-83
2023/12/02 09:08:36;;;;;;;25.55;13.18;;;;;;;0.86;83.83;101320.16;6278265;22;20078;-84
2023/12/02 09:11:02;;;;;;;26.10;13.48;;;;;;;0.80;84.95;101311.97;6226808;22;20007;-83
2023/12/02 09:13:46;;;;;;;28.92;13.18;;;;;;;0.83;84.70;101325.16;6251811;22;20347;-84
2023/12/02 09:16:22;;;;;;;26.58;12.45;;;;;;;0.83;84.94;101332.97;6276680;22;20011;-83
2023/12/02 09:18:48;;;;;;;32.47;13.77;;;;;;;0.84;85.43;101328.66;6278621;22;20000;-83
2023/12/02 09:21:44;;;;;;;26.55;13.40;;;;;;;0.99;85.79;101329.56;6278422;22;20053;-83
2023/12/02 09:24:31;;;;;;;29.15;13.43;;;;;;;1.19;85.37;101326.34;6250648;22;20322;-84
2023/12/02 09:26:59;;;;;;;26.70;12.82;;;;;;;1.41;85.39;101315.44;6278129;22;20007;-87
2023/12/02 09:29:31;;;;;;;27.50;13.00;;;;;;;1.80;83.47;101323.63;6278473;22;20003;-87
2023/12/02 09:31:56;;;;;;;26.58;13.48;;;;;;;2.08;83.04;101325.97;6277006;22;20004;-87
2023/12/02 09:34:40;;;;;;;30.02;14.07;;;;;;;2.36;81.42;101335.25;6251062;22;20003;-87
2023/12/02 09:37:50;;;;;;;27.55;13.82;;;;;;;2.59;81.08;101337.28;6251651;22;20023;-86
2023/12/02 09:40:40;;;;;;;29.90;14.10;;;;;;;2.86;81.39;101335.16;6209843;22;20023;-87
2023/12/02 09:43:50;;;;;;;22.90;12.68;;;;;;;3.23;79.52;101331.75;6249938;22;20315;-88
2023/12/02 09:46:22;;;;;;;24.33;12.75;;;;;;;3.20;78.30;101337.69;6269411;22;20026;-85
2023/12/02 09:49:04;;;;;;;28.33;14.35;;;;;;;3.31;77.26;101345.19;6278874;22;20003;-84
2023/12/02 09:51:45;;;;;;;26.30;13.45;;;;;;;3.51;78.32;101347.00;6250829;22;20094;-84
2023/12/02 09:54:25;;;;;;;25.38;13.82;;;;;;;3.53;78.03;101319.25;6250380;22;20080;-86
2023/12/02 09:56:59;;;;;;;28.77;14.07;;;;;;;3.73;76.72;101360.25;6278041;22;20006;-85
2023/12/02 09:59:35;;;;;;;29.40;14.27;;;;;;;3.73;76.15;101347.19;6277587;22;20012;-86
2023/12/02 10:02:21;;;;;;;27.40;14.27;;;;;;;3.72;76.28;101332.31;6250834;22;20008;-86
2023/12/02 10:05:20;;;;;;;30.63;15.32;;;;;;;3.48;75.68;101292.00;6250078;22;20007;-86
2023/12/02 10:08:23;;;;;;;26.95;13.82;;;;;;;3.85;76.68;101348.56;6283755;22;20004;-86
2023/12/02 10:11:03;;;;;;;26.85;14.32;;;;;;;3.87;75.56;101329.53;6206034;22;20011;-87
2023/12/02 10:13:58;;;;;;;;;;;;;;;;;;;;;
2023/12/02 10:16:45;;;;;;;;;;;;;;;;;;;;;
2023/12/02 10:19:19;;;;;;;25.55;13.63;;;;;;;3.99;75.00;101300.44;6278510;22;20078;-87
2023/12/02 10:21:59;;;;;;;;;;;;;;;;;;;;;
2023/12/02 10:24:38;;;;;;;26.23;14.15;;;;;;;4.64;72.33;101311.97;6277330;22;20079;-85
2023/12/02 10:27:10;;;;;;;29.58;14.95;;;;;;;4.74;71.86;101299.28;6277072;22;20054;-84
2023/12/02 10:29:46;;;;;;;27.08;14.02;;;;;;;5.15;72.80;101328.91;6250615;22;20434;-84
2023/12/02 10:32:24;;;;;;;29.77;15.05;;;;;;;5.47;70.77;101347.63;6277400;22;20007;-84
2023/12/02 10:35:17;;;;;;;28.98;14.88;;;;;;;5.66;70.56;101350.16;6277252;22;20008;-84
2023/12/02 10:37:46;;;;;;;27.75;14.65;;;;;;;5.50;68.75;101345.16;6276263;22;20003;-84
2023/12/02 10:40:18;;;;;;;25.30;14.52;;;;;;;5.25;68.91;101320.59;6277402;22;20003;-84
2023/12/02 10:43:03;;;;;;;26.92;14.10;;;;;;;5.19;70.54;101332.56;6277714;22;20004;-84
2023/12/02 10:45:29;;;;;;;26.13;14.70;;;;;;;4.92;70.69;101353.25;6250836;22;20042;-83
2023/12/02 10:47:58;;;;;;;26.02;14.43;;;;;;;4.74;70.07;101349.03;6250792;22;20016;-84
2023/12/02 10:50:28;;;;;;;26.98;14.20;;;;;;;4.55;71.38;101341.25;6250756;22;20007;-91
2023/12/02 10:53:05;;;;;;;30.92;14.30;;;;;;;4.49;71.90;101349.72;6277171;22;20006;-83
2023/12/02 10:55:35;;;;;;;28.08;14.40;;;;;;;4.52;71.29;101354.19;6277235;22;20000;-83
2023/12/02 10:58:07;;;;;;;28.63;14.40;;;;;;;4.58;70.48;101351.81;6250766;22;20007;-83
2023/12/02 11:00:39;;;;;;;29.27;14.90;;;;;;;4.73;72.86;101336.78;6278041;22;19999;-83
2023/12/02 11:03:26;;;;;;;25.65;13.82;;;;;;;5.12;73.16;101348.84;6277990;22;20226;-82
2023/12/02 11:06:00;;;;;;;22.67;12.73;;;;;;;5.18;70.21;101356.94;6250393;22;20259;-82
2023/12/02 11:09:01;;;;;;;31.73;15.48;;;;;;;5.11;71.35;101347.06;6276382;22;20083;-82
2023/12/02 11:12:08;;;;;;;27.17;14.38;;;;;;;5.10;72.06;101340.94;6246847;22;20008;-82
2023/12/02 11:14:39;;;;;;;25.23;13.48;;;;;;;4.91;69.95;101302.63;6182005;23;20009;-82
2023/12/02 11:17:23;;;;;;;30.60;15.38;;;;;;;5.05;70.63;101352.94;6263917;22;20019;-84
2023/12/02 11:19:54;;;;;;;26.92;13.73;;;;;;;4.91;70.71;101354.97;6276220;22;20000;-84
2023/12/02 11:22:29;;;;;;;27.75;13.50;;;;;;;4.78;72.07;101347.44;6276651;22;20057;-83
2023/12/02 11:24:54;;;;;;;27.27;13.82;;;;;;;4.51;71.74;101353.31;6249213;22;20008;-83